sensor_id;sensor_type;location;lat;lon;timestamp;P1;durP1;ratioP1;P2;durP2;ratioP2
23990;SDS011;12205;50.600;4.608;2023-07-29T00:01:26;4.55;;;0.52;;
23990;SDS011;12205;50.600;4.608;2023-07-29T00:03:53;6.90;;;1.05;;
23990;SDS011;12205;50.600;4.608;2023-07-29T00:06:21;6.75;;;0.60;;
23990;SDS011;12205;50.600;4.608;2023-07-29T00:08:49;3.10;;;0.38;;
23990;SDS011;12205;50.600;4.608;2023-07-29T00:11:16;6.38;;;0.45;;
23990;SDS011;12205;50.600;4.608;2023-07-29T00:13:43;2.55;;;0.55;;
23990;SDS011;12205;50.600;4.608;2023-07-29T00:16:12;4.43;;;0.43;;
23990;SDS011;12205;50.600;4.608;2023-07-29T00:18:43;7.82;;;0.60;;
23990;SDS011;12205;50.600;4.608;2023-07-29T00:21:11;6.70;;;0.47;;
23990;SDS011;12205;50.600;4.608;2023-07-29T00:23:38;3.40;;;0.50;;
23990;SDS011;12205;50.600;4.608;2023-07-29T00:26:05;3.90;;;0.50;;
23990;SDS011;12205;50.600;4.608;2023-07-29T00:28:32;4.50;;;0.40;;
23990;SDS011;12205;50.600;4.608;2023-07-29T00:31:00;6.47;;;0.80;;
23990;SDS011;12205;50.600;4.608;2023-07-29T00:33:29;7.25;;;0.60;;
23990;SDS011;12205;50.600;4.608;2023-07-29T00:35:59;9.05;;;0.50;;
23990;SDS011;12205;50.600;4.608;2023-07-29T00:38:28;10.10;;;0.85;;
23990;SDS011;12205;50.600;4.608;2023-07-29T00:40:55;3.30;;;0.50;;
23990;SDS011;12205;50.600;4.608;2023-07-29T00:43:24;8.13;;;0.77;;
23990;SDS011;12205;50.600;4.608;2023-07-29T00:45:51;14.52;;;1.13;;
23990;SDS011;12205;50.600;4.608;2023-07-29T00:48:20;8.30;;;0.60;;
23990;SDS011;12205;50.600;4.608;2023-07-29T00:50:47;8.70;;;0.45;;
23990;SDS011;12205;50.600;4.608;2023-07-29T00:53:16;3.78;;;0.35;;
23990;SDS011;12205;50.600;4.608;2023-07-29T00:55:43;2.67;;;0.57;;
23990;SDS011;12205;50.600;4.608;2023-07-29T00:58:11;6.13;;;0.50;;
23990;SDS011;12205;50.600;4.608;2023-07-29T01:00:39;3.35;;;0.35;;
23990;SDS011;12205;50.600;4.608;2023-07-29T01:03:07;4.75;;;0.30;;
23990;SDS011;12205;50.600;4.608;2023-07-29T01:05:36;3.25;;;0.40;;
23990;SDS011;12205;50.600;4.608;2023-07-29T01:08:18;4.43;;;0.50;;
23990;SDS011;12205;50.600;4.608;2023-07-29T01:10:55;5.22;;;0.50;;
23990;SDS011;12205;50.600;4.608;2023-07-29T01:13:36;2.53;;;0.40;;
23990;SDS011;12205;50.600;4.608;2023-07-29T01:16:12;3.38;;;0.47;;
23990;SDS011;12205;50.600;4.608;2023-07-29T01:18:47;5.18;;;0.60;;
23990;SDS011;12205;50.600;4.608;2023-07-29T01:21:17;3.42;;;0.40;;
23990;SDS011;12205;50.600;4.608;2023-07-29T01:23:50;4.82;;;0.50;;
23990;SDS011;12205;50.600;4.608;2023-07-29T01:26:19;1.13;;;0.30;;
23990;SDS011;12205;50.600;4.608;2023-07-29T01:28:46;4.85;;;0.40;;
23990;SDS011;12205;50.600;4.608;2023-07-29T01:31:16;2.60;;;0.43;;
23990;SDS011;12205;50.600;4.608;2023-07-29T01:33:53;5.80;;;0.90;;
23990;SDS011;12205;50.600;4.608;2023-07-29T01:36:28;2.08;;;0.40;;
23990;SDS011;12205;50.600;4.608;2023-07-29T01:39:01;2.70;;;0.43;;
23990;SDS011;12205;50.600;4.608;2023-07-29T01:41:29;1.00;;;0.32;;
23990;SDS011;12205;50.600;4.608;2023-07-29T01:43:57;1.48;;;0.50;;
23990;SDS011;12205;50.600;4.608;2023-07-29T01:46:25;5.13;;;0.60;;
23990;SDS011;12205;50.600;4.608;2023-07-29T01:48:53;6.10;;;0.50;;
23990;SDS011;12205;50.600;4.608;2023-07-29T01:51:20;3.33;;;0.55;;
23990;SDS011;12205;50.600;4.608;2023-07-29T01:53:47;6.07;;;0.60;;
23990;SDS011;12205;50.600;4.608;2023-07-29T01:56:16;3.55;;;0.30;;
23990;SDS011;12205;50.600;4.608;2023-07-29T01:58:51;4.75;;;0.60;;
23990;SDS011;12205;50.600;4.608;2023-07-29T02:01:18;4.78;;;0.55;;
23990;SDS011;12205;50.600;4.608;2023-07-29T02:03:46;5.03;;;0.50;;
23990;SDS011;12205;50.600;4.608;2023-07-29T02:06:18;5.28;;;0.70;;
23990;SDS011;12205;50.600;4.608;2023-07-29T02:08:45;5.47;;;0.70;;
23990;SDS011;12205;50.600;4.608;2023-07-29T02:11:12;7.25;;;0.60;;
23990;SDS011;12205;50.600;4.608;2023-07-29T02:13:41;6.22;;;0.73;;
23990;SDS011;12205;50.600;4.608;2023-07-29T02:16:09;10.10;;;0.60;;
23990;SDS011;12205;50.600;4.608;2023-07-29T02:18:36;4.15;;;0.60;;
23990;SDS011;12205;50.600;4.608;2023-07-29T02:21:03;4.38;;;0.60;;
23990;SDS011;12205;50.600;4.608;2023-07-29T02:23:31;4.00;;;0.65;;
23990;SDS011;12205;50.600;4.608;2023-07-29T02:25:58;4.63;;;0.52;;
23990;SDS011;12205;50.600;4.608;2023-07-29T02:28:25;5.20;;;0.60;;
23990;SDS011;12205;50.600;4.608;2023-07-29T02:33:42;4.75;;;0.50;;
23990;SDS011;12205;50.600;4.608;2023-07-29T02:36:11;7.15;;;1.10;;
23990;SDS011;12205;50.600;4.608;2023-07-29T02:38:39;2.53;;;0.80;;
23990;SDS011;12205;50.600;4.608;2023-07-29T02:41:07;4.25;;;0.60;;
23990;SDS011;12205;50.600;4.608;2023-07-29T02:43:35;2.47;;;0.70;;
23990;SDS011;12205;50.600;4.608;2023-07-29T02:46:02;2.72;;;0.70;;
23990;SDS011;12205;50.600;4.608;2023-07-29T02:48:31;3.30;;;0.40;;
23990;SDS011;12205;50.600;4.608;2023-07-29T02:50:58;6.85;;;0.70;;
23990;SDS011;12205;50.600;4.608;2023-07-29T02:53:26;3.17;;;0.50;;
23990;SDS011;12205;50.600;4.608;2023-07-29T02:55:53;3.55;;;0.50;;
23990;SDS011;12205;50.600;4.608;2023-07-29T02:58:20;1.98;;;0.52;;
23990;SDS011;12205;50.600;4.608;2023-07-29T03:00:47;4.15;;;0.63;;
23990;SDS011;12205;50.600;4.608;2023-07-29T03:03:16;2.20;;;0.60;;
23990;SDS011;12205;50.600;4.608;2023-07-29T03:05:46;6.03;;;0.40;;
23990;SDS011;12205;50.600;4.608;2023-07-29T03:08:13;3.83;;;0.57;;
23990;SDS011;12205;50.600;4.608;2023-07-29T03:10:40;4.00;;;0.50;;
23990;SDS011;12205;50.600;4.608;2023-07-29T03:13:08;4.95;;;0.50;;
23990;SDS011;12205;50.600;4.608;2023-07-29T03:15:36;4.40;;;0.80;;
23990;SDS011;12205;50.600;4.608;2023-07-29T03:18:03;14.82;;;0.73;;
23990;SDS011;12205;50.600;4.608;2023-07-29T03:20:30;4.82;;;0.50;;
23990;SDS011;12205;50.600;4.608;2023-07-29T03:22:58;3.75;;;0.40;;
23990;SDS011;12205;50.600;4.608;2023-07-29T03:25:26;2.92;;;0.60;;
23990;SDS011;12205;50.600;4.608;2023-07-29T03:27:54;3.97;;;0.52;;
23990;SDS011;12205;50.600;4.608;2023-07-29T03:30:23;2.75;;;0.60;;
23990;SDS011;12205;50.600;4.608;2023-07-29T03:32:52;2.00;;;0.50;;
23990;SDS011;12205;50.600;4.608;2023-07-29T03:35:21;3.85;;;0.60;;
23990;SDS011;12205;50.600;4.608;2023-07-29T03:37:48;1.33;;;0.50;;
23990;SDS011;12205;50.600;4.608;2023-07-29T03:40:17;4.97;;;0.55;;
23990;SDS011;12205;50.600;4.608;2023-07-29T03:42:44;9.00;;;0.90;;
23990;SDS011;12205;50.600;4.608;2023-07-29T03:45:11;4.30;;;0.73;;
23990;SDS011;12205;50.600;4.608;2023-07-29T03:47:38;4.35;;;0.50;;
23990;SDS011;12205;50.600;4.608;2023-07-29T03:50:08;4.55;;;0.55;;
23990;SDS011;12205;50.600;4.608;2023-07-29T03:52:36;7.55;;;0.60;;
23990;SDS011;12205;50.600;4.608;2023-07-29T03:55:03;3.72;;;0.52;;
23990;SDS011;12205;50.600;4.608;2023-07-29T03:57:32;13.00;;;0.80;;
23990;SDS011;12205;50.600;4.608;2023-07-29T03:59:59;4.28;;;0.45;;
23990;SDS011;12205;50.600;4.608;2023-07-29T04:02:29;5.07;;;0.52;;
23990;SDS011;12205;50.600;4.608;2023-07-29T04:04:58;4.82;;;0.63;;
23990;SDS011;12205;50.600;4.608;2023-07-29T04:07:25;5.45;;;0.70;;
23990;SDS011;12205;50.600;4.608;2023-07-29T04:09:53;5.55;;;0.70;;
23990;SDS011;12205;50.600;4.608;2023-07-29T04:12:21;3.20;;;0.70;;
23990;SDS011;12205;50.600;4.608;2023-07-29T04:14:49;6.47;;;0.57;;
23990;SDS011;12205;50.600;4.608;2023-07-29T04:17:17;5.28;;;0.38;;
23990;SDS011;12205;50.600;4.608;2023-07-29T04:19:44;5.80;;;0.32;;
23990;SDS011;12205;50.600;4.608;2023-07-29T04:22:11;15.27;;;1.15;;
23990;SDS011;12205;50.600;4.608;2023-07-29T04:24:38;7.90;;;0.93;;
23990;SDS011;12205;50.600;4.608;2023-07-29T04:27:06;4.63;;;0.57;;
23990;SDS011;12205;50.600;4.608;2023-07-29T04:29:33;5.93;;;0.80;;
23990;SDS011;12205;50.600;4.608;2023-07-29T04:32:02;3.67;;;0.40;;
23990;SDS011;12205;50.600;4.608;2023-07-29T04:34:30;2.15;;;0.45;;
23990;SDS011;12205;50.600;4.608;2023-07-29T04:36:59;3.22;;;0.50;;
23990;SDS011;12205;50.600;4.608;2023-07-29T04:39:27;4.35;;;0.40;;
23990;SDS011;12205;50.600;4.608;2023-07-29T04:41:54;5.10;;;0.45;;
23990;SDS011;12205;50.600;4.608;2023-07-29T04:44:22;4.60;;;0.40;;
23990;SDS011;12205;50.600;4.608;2023-07-29T04:46:49;2.03;;;0.40;;
23990;SDS011;12205;50.600;4.608;2023-07-29T04:49:18;7.10;;;0.50;;
23990;SDS011;12205;50.600;4.608;2023-07-29T04:51:45;3.67;;;0.50;;
23990;SDS011;12205;50.600;4.608;2023-07-29T04:54:12;1.95;;;0.30;;
23990;SDS011;12205;50.600;4.608;2023-07-29T04:56:40;1.05;;;0.38;;
23990;SDS011;12205;50.600;4.608;2023-07-29T04:59:07;2.38;;;0.30;;
23990;SDS011;12205;50.600;4.608;2023-07-29T05:01:34;2.40;;;0.45;;
23990;SDS011;12205;50.600;4.608;2023-07-29T05:04:02;1.48;;;0.45;;
23990;SDS011;12205;50.600;4.608;2023-07-29T05:06:31;2.92;;;0.30;;
23990;SDS011;12205;50.600;4.608;2023-07-29T05:09:00;2.47;;;0.50;;
23990;SDS011;12205;50.600;4.608;2023-07-29T05:11:39;5.68;;;0.50;;
23990;SDS011;12205;50.600;4.608;2023-07-29T05:14:07;1.90;;;0.40;;
23990;SDS011;12205;50.600;4.608;2023-07-29T05:16:34;2.08;;;0.40;;
23990;SDS011;12205;50.600;4.608;2023-07-29T05:19:03;4.35;;;0.30;;
23990;SDS011;12205;50.600;4.608;2023-07-29T05:21:32;0.95;;;0.40;;
23990;SDS011;12205;50.600;4.608;2023-07-29T05:24:00;4.18;;;0.60;;
23990;SDS011;12205;50.600;4.608;2023-07-29T05:26:30;5.95;;;0.50;;
23990;SDS011;12205;50.600;4.608;2023-07-29T05:28:57;2.03;;;0.40;;
23990;SDS011;12205;50.600;4.608;2023-07-29T05:31:24;3.47;;;0.55;;
23990;SDS011;12205;50.600;4.608;2023-07-29T05:33:53;4.38;;;0.60;;
23990;SDS011;12205;50.600;4.608;2023-07-29T05:36:20;2.00;;;0.50;;
23990;SDS011;12205;50.600;4.608;2023-07-29T05:38:49;4.22;;;0.70;;
23990;SDS011;12205;50.600;4.608;2023-07-29T05:41:17;1.50;;;0.68;;
23990;SDS011;12205;50.600;4.608;2023-07-29T05:43:45;2.97;;;0.40;;
23990;SDS011;12205;50.600;4.608;2023-07-29T05:46:12;2.85;;;0.40;;
23990;SDS011;12205;50.600;4.608;2023-07-29T05:48:40;4.80;;;0.40;;
23990;SDS011;12205;50.600;4.608;2023-07-29T05:51:07;2.47;;;0.40;;
23990;SDS011;12205;50.600;4.608;2023-07-29T05:53:35;1.63;;;0.40;;
23990;SDS011;12205;50.600;4.608;2023-07-29T05:56:03;1.75;;;0.30;;
23990;SDS011;12205;50.600;4.608;2023-07-29T05:58:30;1.67;;;0.30;;
23990;SDS011;12205;50.600;4.608;2023-07-29T06:00:58;1.80;;;0.30;;
23990;SDS011;12205;50.600;4.608;2023-07-29T06:03:25;2.00;;;0.40;;
23990;SDS011;12205;50.600;4.608;2023-07-29T06:05:52;3.22;;;0.40;;
23990;SDS011;12205;50.600;4.608;2023-07-29T06:08:20;3.90;;;0.40;;
23990;SDS011;12205;50.600;4.608;2023-07-29T06:10:47;4.60;;;0.85;;
23990;SDS011;12205;50.600;4.608;2023-07-29T06:13:16;3.03;;;0.82;;
23990;SDS011;12205;50.600;4.608;2023-07-29T06:15:48;3.60;;;0.35;;
23990;SDS011;12205;50.600;4.608;2023-07-29T06:18:15;2.15;;;0.40;;
23990;SDS011;12205;50.600;4.608;2023-07-29T06:20:45;2.75;;;0.40;;
23990;SDS011;12205;50.600;4.608;2023-07-29T06:23:12;3.72;;;0.43;;
23990;SDS011;12205;50.600;4.608;2023-07-29T06:25:39;2.17;;;0.50;;
23990;SDS011;12205;50.600;4.608;2023-07-29T06:28:06;2.42;;;0.50;;
23990;SDS011;12205;50.600;4.608;2023-07-29T06:30:36;3.17;;;0.52;;
23990;SDS011;12205;50.600;4.608;2023-07-29T06:33:03;1.95;;;0.32;;
23990;SDS011;12205;50.600;4.608;2023-07-29T06:35:30;2.58;;;0.32;;
23990;SDS011;12205;50.600;4.608;2023-07-29T06:37:59;3.42;;;0.50;;
23990;SDS011;12205;50.600;4.608;2023-07-29T06:40:26;5.57;;;0.60;;
23990;SDS011;12205;50.600;4.608;2023-07-29T06:42:53;2.80;;;0.45;;
23990;SDS011;12205;50.600;4.608;2023-07-29T06:45:21;2.50;;;0.30;;
23990;SDS011;12205;50.600;4.608;2023-07-29T06:47:49;2.92;;;0.77;;
23990;SDS011;12205;50.600;4.608;2023-07-29T06:50:16;3.40;;;0.50;;
23990;SDS011;12205;50.600;4.608;2023-07-29T06:52:44;3.35;;;0.40;;
23990;SDS011;12205;50.600;4.608;2023-07-29T06:55:11;0.98;;;0.35;;
23990;SDS011;12205;50.600;4.608;2023-07-29T06:57:39;2.55;;;0.40;;
23990;SDS011;12205;50.600;4.608;2023-07-29T07:00:06;3.47;;;0.40;;
23990;SDS011;12205;50.600;4.608;2023-07-29T07:02:35;2.42;;;0.43;;
23990;SDS011;12205;50.600;4.608;2023-07-29T07:05:04;3.95;;;0.30;;
23990;SDS011;12205;50.600;4.608;2023-07-29T07:07:31;5.88;;;0.65;;
23990;SDS011;12205;50.600;4.608;2023-07-29T07:10:00;1.92;;;0.35;;
23990;SDS011;12205;50.600;4.608;2023-07-29T07:12:27;1.27;;;0.30;;
23990;SDS011;12205;50.600;4.608;2023-07-29T07:14:55;3.17;;;0.40;;
23990;SDS011;12205;50.600;4.608;2023-07-29T07:17:22;2.65;;;0.50;;
23990;SDS011;12205;50.600;4.608;2023-07-29T07:19:49;6.70;;;0.38;;
23990;SDS011;12205;50.600;4.608;2023-07-29T07:22:18;1.92;;;0.40;;
23990;SDS011;12205;50.600;4.608;2023-07-29T07:24:45;4.80;;;0.43;;
23990;SDS011;12205;50.600;4.608;2023-07-29T07:27:13;4.70;;;0.30;;
23990;SDS011;12205;50.600;4.608;2023-07-29T07:29:40;3.70;;;0.30;;
23990;SDS011;12205;50.600;4.608;2023-07-29T07:32:08;1.38;;;0.40;;
23990;SDS011;12205;50.600;4.608;2023-07-29T07:34:35;2.08;;;0.40;;
23990;SDS011;12205;50.600;4.608;2023-07-29T07:37:02;2.10;;;0.20;;
23990;SDS011;12205;50.600;4.608;2023-07-29T07:39:32;1.17;;;0.20;;
23990;SDS011;12205;50.600;4.608;2023-07-29T07:41:59;2.65;;;0.30;;
23990;SDS011;12205;50.600;4.608;2023-07-29T07:44:26;1.02;;;0.20;;
23990;SDS011;12205;50.600;4.608;2023-07-29T07:46:54;1.65;;;0.30;;
23990;SDS011;12205;50.600;4.608;2023-07-29T07:49:21;1.25;;;0.30;;
23990;SDS011;12205;50.600;4.608;2023-07-29T07:51:49;1.70;;;0.30;;
23990;SDS011;12205;50.600;4.608;2023-07-29T07:54:16;2.30;;;0.35;;
23990;SDS011;12205;50.600;4.608;2023-07-29T07:56:45;1.33;;;0.20;;
23990;SDS011;12205;50.600;4.608;2023-07-29T07:59:12;0.82;;;0.20;;
23990;SDS011;12205;50.600;4.608;2023-07-29T08:01:40;2.15;;;0.10;;
23990;SDS011;12205;50.600;4.608;2023-07-29T08:04:07;1.50;;;0.30;;
23990;SDS011;12205;50.600;4.608;2023-07-29T08:06:37;3.67;;;0.20;;
23990;SDS011;12205;50.600;4.608;2023-07-29T08:09:05;3.65;;;0.30;;
23990;SDS011;12205;50.600;4.608;2023-07-29T08:11:32;1.40;;;0.20;;
23990;SDS011;12205;50.600;4.608;2023-07-29T08:14:00;1.70;;;0.20;;
23990;SDS011;12205;50.600;4.608;2023-07-29T08:16:28;3.28;;;0.22;;
23990;SDS011;12205;50.600;4.608;2023-07-29T08:18:55;3.78;;;0.40;;
23990;SDS011;12205;50.600;4.608;2023-07-29T08:21:23;0.88;;;0.20;;
23990;SDS011;12205;50.600;4.608;2023-07-29T08:23:50;3.80;;;0.40;;
23990;SDS011;12205;50.600;4.608;2023-07-29T08:26:17;1.48;;;0.30;;
23990;SDS011;12205;50.600;4.608;2023-07-29T08:28:45;2.15;;;0.20;;
23990;SDS011;12205;50.600;4.608;2023-07-29T08:31:14;3.55;;;0.30;;
23990;SDS011;12205;50.600;4.608;2023-07-29T08:33:41;3.88;;;0.35;;
23990;SDS011;12205;50.600;4.608;2023-07-29T08:36:09;2.70;;;0.40;;
23990;SDS011;12205;50.600;4.608;2023-07-29T08:38:36;0.88;;;0.25;;
23990;SDS011;12205;50.600;4.608;2023-07-29T08:41:06;1.05;;;0.20;;
23990;SDS011;12205;50.600;4.608;2023-07-29T08:43:43;0.73;;;0.28;;
23990;SDS011;12205;50.600;4.608;2023-07-29T08:46:20;1.67;;;0.20;;
23990;SDS011;12205;50.600;4.608;2023-07-29T08:48:47;1.85;;;0.30;;
23990;SDS011;12205;50.600;4.608;2023-07-29T08:51:15;0.90;;;0.20;;
23990;SDS011;12205;50.600;4.608;2023-07-29T08:53:46;1.93;;;0.20;;
23990;SDS011;12205;50.600;4.608;2023-07-29T08:56:14;1.52;;;0.30;;
23990;SDS011;12205;50.600;4.608;2023-07-29T08:58:42;1.00;;;0.20;;
23990;SDS011;12205;50.600;4.608;2023-07-29T09:01:10;1.80;;;0.30;;
23990;SDS011;12205;50.600;4.608;2023-07-29T09:03:40;1.17;;;0.30;;
23990;SDS011;12205;50.600;4.608;2023-07-29T09:06:08;2.90;;;0.35;;
23990;SDS011;12205;50.600;4.608;2023-07-29T09:08:35;1.95;;;0.38;;
23990;SDS011;12205;50.600;4.608;2023-07-29T09:11:03;2.40;;;0.30;;
23990;SDS011;12205;50.600;4.608;2023-07-29T09:13:30;2.97;;;0.40;;
23990;SDS011;12205;50.600;4.608;2023-07-29T09:15:57;1.48;;;0.32;;
23990;SDS011;12205;50.600;4.608;2023-07-29T09:18:25;1.42;;;0.22;;
23990;SDS011;12205;50.600;4.608;2023-07-29T09:20:55;1.50;;;0.30;;
23990;SDS011;12205;50.600;4.608;2023-07-29T09:23:26;4.93;;;0.40;;
23990;SDS011;12205;50.600;4.608;2023-07-29T09:26:00;0.82;;;0.20;;
23990;SDS011;12205;50.600;4.608;2023-07-29T09:28:28;3.40;;;0.40;;
23990;SDS011;12205;50.600;4.608;2023-07-29T09:31:00;1.85;;;0.30;;
23990;SDS011;12205;50.600;4.608;2023-07-29T09:33:28;2.83;;;0.30;;
23990;SDS011;12205;50.600;4.608;2023-07-29T09:35:58;1.17;;;0.35;;
23990;SDS011;12205;50.600;4.608;2023-07-29T09:38:28;1.23;;;0.20;;
23990;SDS011;12205;50.600;4.608;2023-07-29T09:40:56;1.35;;;0.30;;
23990;SDS011;12205;50.600;4.608;2023-07-29T09:43:28;2.70;;;0.70;;
23990;SDS011;12205;50.600;4.608;2023-07-29T09:45:59;3.38;;;1.63;;
23990;SDS011;12205;50.600;4.608;2023-07-29T09:48:27;4.25;;;0.60;;
23990;SDS011;12205;50.600;4.608;2023-07-29T09:51:01;0.80;;;0.32;;
23990;SDS011;12205;50.600;4.608;2023-07-29T09:53:39;1.02;;;0.32;;
23990;SDS011;12205;50.600;4.608;2023-07-29T09:56:09;1.77;;;0.43;;
23990;SDS011;12205;50.600;4.608;2023-07-29T09:58:37;1.67;;;0.40;;
23990;SDS011;12205;50.600;4.608;2023-07-29T10:01:05;2.08;;;0.38;;
23990;SDS011;12205;50.600;4.608;2023-07-29T10:03:33;4.93;;;1.80;;
23990;SDS011;12205;50.600;4.608;2023-07-29T10:06:04;3.30;;;1.08;;
23990;SDS011;12205;50.600;4.608;2023-07-29T10:11:03;5.60;;;2.45;;
23990;SDS011;12205;50.600;4.608;2023-07-29T10:13:33;4.28;;;1.98;;
23990;SDS011;12205;50.600;4.608;2023-07-29T10:16:03;3.08;;;1.25;;
23990;SDS011;12205;50.600;4.608;2023-07-29T10:18:31;4.85;;;1.70;;
23990;SDS011;12205;50.600;4.608;2023-07-29T10:21:00;5.35;;;1.17;;
23990;SDS011;12205;50.600;4.608;2023-07-29T10:23:32;3.42;;;0.68;;
23990;SDS011;12205;50.600;4.608;2023-07-29T10:26:05;4.88;;;0.52;;
23990;SDS011;12205;50.600;4.608;2023-07-29T10:28:37;2.47;;;0.85;;
23990;SDS011;12205;50.600;4.608;2023-07-29T10:31:07;4.43;;;0.70;;
23990;SDS011;12205;50.600;4.608;2023-07-29T10:33:36;3.75;;;0.70;;
23990;SDS011;12205;50.600;4.608;2023-07-29T10:36:04;5.68;;;0.80;;
23990;SDS011;12205;50.600;4.608;2023-07-29T10:38:33;2.97;;;0.35;;
23990;SDS011;12205;50.600;4.608;2023-07-29T10:41:01;3.40;;;0.60;;
23990;SDS011;12205;50.600;4.608;2023-07-29T10:43:31;5.57;;;0.70;;
23990;SDS011;12205;50.600;4.608;2023-07-29T10:46:14;4.50;;;0.43;;
23990;SDS011;12205;50.600;4.608;2023-07-29T10:48:44;2.17;;;0.40;;
23990;SDS011;12205;50.600;4.608;2023-07-29T10:51:26;1.63;;;0.52;;
23990;SDS011;12205;50.600;4.608;2023-07-29T10:53:59;1.13;;;0.43;;
23990;SDS011;12205;50.600;4.608;2023-07-29T10:56:29;2.78;;;0.40;;
23990;SDS011;12205;50.600;4.608;2023-07-29T10:59:01;0.70;;;0.20;;
23990;SDS011;12205;50.600;4.608;2023-07-29T11:01:58;1.05;;;0.32;;
23990;SDS011;12205;50.600;4.608;2023-07-29T11:04:26;0.77;;;0.30;;
23990;SDS011;12205;50.600;4.608;2023-07-29T11:09:58;3.55;;;0.50;;
23990;SDS011;12205;50.600;4.608;2023-07-29T11:12:34;4.38;;;0.40;;
23990;SDS011;12205;50.600;4.608;2023-07-29T11:15:14;3.60;;;0.68;;
23990;SDS011;12205;50.600;4.608;2023-07-29T11:17:45;4.22;;;0.30;;
23990;SDS011;12205;50.600;4.608;2023-07-29T11:20:14;2.95;;;0.40;;
23990;SDS011;12205;50.600;4.608;2023-07-29T11:22:42;2.08;;;0.50;;
23990;SDS011;12205;50.600;4.608;2023-07-29T11:25:11;4.72;;;0.40;;
23990;SDS011;12205;50.600;4.608;2023-07-29T11:27:40;3.37;;;0.40;;
23990;SDS011;12205;50.600;4.608;2023-07-29T11:30:08;2.05;;;0.40;;
23990;SDS011;12205;50.600;4.608;2023-07-29T11:32:37;3.08;;;0.40;;
23990;SDS011;12205;50.600;4.608;2023-07-29T11:35:06;5.22;;;0.95;;
23990;SDS011;12205;50.600;4.608;2023-07-29T11:37:36;5.03;;;0.55;;
23990;SDS011;12205;50.600;4.608;2023-07-29T11:40:05;3.45;;;0.40;;
23990;SDS011;12205;50.600;4.608;2023-07-29T11:42:37;0.57;;;0.20;;
23990;SDS011;12205;50.600;4.608;2023-07-29T11:45:04;1.00;;;0.30;;
23990;SDS011;12205;50.600;4.608;2023-07-29T11:47:33;1.77;;;0.22;;
23990;SDS011;12205;50.600;4.608;2023-07-29T11:50:02;2.30;;;0.32;;
23990;SDS011;12205;50.600;4.608;2023-07-29T11:52:31;0.50;;;0.15;;
23990;SDS011;12205;50.600;4.608;2023-07-29T11:54:59;1.48;;;0.30;;
23990;SDS011;12205;50.600;4.608;2023-07-29T11:57:28;0.50;;;0.20;;
23990;SDS011;12205;50.600;4.608;2023-07-29T11:59:57;0.75;;;0.20;;
23990;SDS011;12205;50.600;4.608;2023-07-29T12:02:24;3.35;;;0.30;;
23990;SDS011;12205;50.600;4.608;2023-07-29T12:04:52;2.50;;;0.45;;
23990;SDS011;12205;50.600;4.608;2023-07-29T12:07:20;0.70;;;0.20;;
23990;SDS011;12205;50.600;4.608;2023-07-29T12:09:47;1.55;;;0.30;;
23990;SDS011;12205;50.600;4.608;2023-07-29T12:12:16;2.60;;;0.30;;
23990;SDS011;12205;50.600;4.608;2023-07-29T12:14:44;0.57;;;0.20;;
23990;SDS011;12205;50.600;4.608;2023-07-29T12:17:13;3.00;;;0.30;;
23990;SDS011;12205;50.600;4.608;2023-07-29T12:19:41;0.40;;;0.20;;
23990;SDS011;12205;50.600;4.608;2023-07-29T12:22:09;0.90;;;0.22;;
23990;SDS011;12205;50.600;4.608;2023-07-29T12:24:39;2.28;;;0.25;;
23990;SDS011;12205;50.600;4.608;2023-07-29T12:27:10;2.63;;;0.30;;
23990;SDS011;12205;50.600;4.608;2023-07-29T12:29:40;4.25;;;0.30;;
23990;SDS011;12205;50.600;4.608;2023-07-29T12:32:09;2.45;;;0.20;;
23990;SDS011;12205;50.600;4.608;2023-07-29T12:34:38;3.03;;;0.28;;
23990;SDS011;12205;50.600;4.608;2023-07-29T12:37:06;1.38;;;0.20;;
23990;SDS011;12205;50.600;4.608;2023-07-29T12:39:34;5.88;;;0.50;;
23990;SDS011;12205;50.600;4.608;2023-07-29T12:42:06;1.33;;;0.20;;
23990;SDS011;12205;50.600;4.608;2023-07-29T12:44:34;3.50;;;0.38;;
23990;SDS011;12205;50.600;4.608;2023-07-29T12:47:04;1.52;;;0.32;;
23990;SDS011;12205;50.600;4.608;2023-07-29T12:49:33;3.58;;;0.32;;
23990;SDS011;12205;50.600;4.608;2023-07-29T12:52:02;2.83;;;0.28;;
23990;SDS011;12205;50.600;4.608;2023-07-29T12:54:30;4.05;;;0.40;;
23990;SDS011;12205;50.600;4.608;2023-07-29T12:56:57;1.73;;;0.32;;
23990;SDS011;12205;50.600;4.608;2023-07-29T12:59:24;0.75;;;0.32;;
23990;SDS011;12205;50.600;4.608;2023-07-29T13:01:51;3.15;;;0.30;;
23990;SDS011;12205;50.600;4.608;2023-07-29T13:04:18;2.45;;;0.17;;
23990;SDS011;12205;50.600;4.608;2023-07-29T13:06:45;0.20;;;0.10;;
23990;SDS011;12205;50.600;4.608;2023-07-29T13:09:13;0.30;;;0.10;;
23990;SDS011;12205;50.600;4.608;2023-07-29T13:11:41;1.95;;;0.13;;
23990;SDS011;12205;50.600;4.608;2023-07-29T13:14:08;1.55;;;0.28;;
23990;SDS011;12205;50.600;4.608;2023-07-29T13:16:35;0.73;;;0.10;;
23990;SDS011;12205;50.600;4.608;2023-07-29T13:19:02;0.35;;;0.10;;
23990;SDS011;12205;50.600;4.608;2023-07-29T13:21:29;0.28;;;0.10;;
23990;SDS011;12205;50.600;4.608;2023-07-29T13:23:56;0.73;;;0.10;;
23990;SDS011;12205;50.600;4.608;2023-07-29T13:26:24;0.20;;;0.10;;
23990;SDS011;12205;50.600;4.608;2023-07-29T13:28:51;1.27;;;0.10;;
23990;SDS011;12205;50.600;4.608;2023-07-29T13:31:20;0.65;;;0.10;;
23990;SDS011;12205;50.600;4.608;2023-07-29T13:33:47;0.30;;;0.20;;
23990;SDS011;12205;50.600;4.608;2023-07-29T13:36:15;1.77;;;0.10;;
23990;SDS011;12205;50.600;4.608;2023-07-29T13:38:42;0.43;;;0.10;;
23990;SDS011;12205;50.600;4.608;2023-07-29T13:41:09;0.25;;;0.08;;
23990;SDS011;12205;50.600;4.608;2023-07-29T13:43:37;0.65;;;0.20;;
23990;SDS011;12205;50.600;4.608;2023-07-29T13:46:04;2.10;;;0.10;;
23990;SDS011;12205;50.600;4.608;2023-07-29T13:48:31;0.40;;;0.10;;
23990;SDS011;12205;50.600;4.608;2023-07-29T13:51:00;0.82;;;0.20;;
23990;SDS011;12205;50.600;4.608;2023-07-29T13:53:28;1.15;;;0.13;;
23990;SDS011;12205;50.600;4.608;2023-07-29T13:55:55;0.40;;;0.10;;
23990;SDS011;12205;50.600;4.608;2023-07-29T13:58:22;0.20;;;0.10;;
23990;SDS011;12205;50.600;4.608;2023-07-29T14:00:50;0.98;;;0.20;;
23990;SDS011;12205;50.600;4.608;2023-07-29T14:03:18;0.40;;;0.10;;
23990;SDS011;12205;50.600;4.608;2023-07-29T14:05:45;0.85;;;0.13;;
23990;SDS011;12205;50.600;4.608;2023-07-29T14:08:12;0.22;;;0.10;;
23990;SDS011;12205;50.600;4.608;2023-07-29T14:10:39;0.45;;;0.10;;
23990;SDS011;12205;50.600;4.608;2023-07-29T14:13:06;0.20;;;0.10;;
23990;SDS011;12205;50.600;4.608;2023-07-29T14:15:34;4.75;;;0.20;;
23990;SDS011;12205;50.600;4.608;2023-07-29T14:18:02;1.55;;;0.30;;
23990;SDS011;12205;50.600;4.608;2023-07-29T14:20:29;0.60;;;0.10;;
23990;SDS011;12205;50.600;4.608;2023-07-29T14:22:57;0.22;;;0.10;;
23990;SDS011;12205;50.600;4.608;2023-07-29T14:25:24;0.57;;;0.15;;
23990;SDS011;12205;50.600;4.608;2023-07-29T14:27:51;3.80;;;0.22;;
23990;SDS011;12205;50.600;4.608;2023-07-29T14:30:18;0.60;;;0.10;;
23990;SDS011;12205;50.600;4.608;2023-07-29T14:32:46;2.78;;;0.10;;
23990;SDS011;12205;50.600;4.608;2023-07-29T14:35:14;1.83;;;0.20;;
23990;SDS011;12205;50.600;4.608;2023-07-29T14:37:41;0.28;;;0.10;;
23990;SDS011;12205;50.600;4.608;2023-07-29T14:40:08;0.70;;;0.10;;
23990;SDS011;12205;50.600;4.608;2023-07-29T14:42:36;0.65;;;0.20;;
23990;SDS011;12205;50.600;4.608;2023-07-29T14:45:03;1.73;;;0.22;;
23990;SDS011;12205;50.600;4.608;2023-07-29T14:47:32;0.82;;;0.20;;
23990;SDS011;12205;50.600;4.608;2023-07-29T14:50:00;2.35;;;0.30;;
23990;SDS011;12205;50.600;4.608;2023-07-29T14:52:28;1.75;;;0.15;;
23990;SDS011;12205;50.600;4.608;2023-07-29T14:54:55;1.33;;;0.20;;
23990;SDS011;12205;50.600;4.608;2023-07-29T14:57:22;0.70;;;0.20;;
23990;SDS011;12205;50.600;4.608;2023-07-29T14:59:49;2.15;;;0.20;;
23990;SDS011;12205;50.600;4.608;2023-07-29T15:02:17;0.88;;;0.10;;
23990;SDS011;12205;50.600;4.608;2023-07-29T15:04:44;0.90;;;0.20;;